Time;durP1;ratioP1;P1;durP2;ratioP2;P2;SDS_P1;SDS_P2;PMS_P1;PMS_P2;Temp;Humidity;BMP_temperature;BMP_pressure;BME280_temperature;BME280_humidity;BME280_pressure;Samples;Min_cycle;Max_cycle;Signal;HPM_P1;HPM_P2
2022/10/09 00:01:05;;;;;;;;;;;8.60;99.90;;;;;;5156848;27;19965;-74
2022/10/09 00:03:31;;;;;;;;;;;8.50;99.90;;;;;;5146516;27;19931;-74
2022/10/09 00:05:57;;;;;;;;;;;8.40;99.90;;;;;;5154065;27;20412;-74
2022/10/09 00:08:23;;;;;;;;;;;8.40;99.90;;;;;;5147133;27;19923;-74
2022/10/09 00:10:49;;;;;;;;;;;8.40;99.90;;;;;;5132587;27;19927;-74
2022/10/09 00:13:15;;;;;;;;;;;8.30;99.90;;;;;;5130796;27;19929;-74
2022/10/09 00:15:42;;;;;;;;;;;8.30;99.90;;;;;;5132203;27;19965;-74
2022/10/09 00:18:09;;;;;;;;;;;8.30;99.90;;;;;;5115758;28;19930;-74
2022/10/09 00:20:36;;;;;;;;;;;8.30;99.90;;;;;;5132440;27;19923;-80
2022/10/09 00:23:01;;;;;;;;;;;8.20;99.90;;;;;;5148376;27;19937;-74
2022/10/09 00:25:27;;;;;;;;;;;8.20;99.90;;;;;;5142537;27;20018;-76
2022/10/09 00:27:52;;;;;;;;;;;8.20;99.90;;;;;;5145444;27;19923;-78
2022/10/09 00:30:18;;;;;;;;;;;8.20;99.90;;;;;;5138622;27;19962;-74
2022/10/09 00:32:43;;;;;;;;;;;8.10;99.90;;;;;;5142461;27;19931;-75
2022/10/09 00:35:09;;;;;;;;;;;8.10;99.90;;;;;;5133037;27;19923;-74
2022/10/09 00:37:34;;;;;;;;;;;8.10;99.90;;;;;;5173778;27;19974;-75
2022/10/09 00:40:00;;;;;;;;;;;8.10;99.90;;;;;;5158547;27;19991;-74
2022/10/09 00:42:25;;;;;;;;;;;8.10;99.90;;;;;;5161365;27;19923;-74
2022/10/09 00:44:58;;;;;;;;;;;8.10;99.90;;;;;;5133219;27;19989;-74
2022/10/09 00:47:30;;;;;;;;;;;8.00;99.90;;;;;;5140454;27;19927;-74
2022/10/09 00:50:01;;;;;;;;;;;8.00;99.90;;;;;;5140135;27;20045;-74
2022/10/09 00:52:27;;;;;;;;;;;8.00;99.90;;;;;;5158018;27;20402;-74
2022/10/09 00:54:53;;;;;;;;;;;8.00;99.90;;;;;;5141318;27;19923;-74
2022/10/09 00:57:18;;;;;;;;;;;7.90;99.90;;;;;;5124075;27;19923;-74
2022/10/09 00:59:44;;;;;;;;;;;7.90;99.90;;;;;;5119416;27;19923;-74
2022/10/09 01:02:10;;;;;;;;;;;7.90;99.90;;;;;;5137344;27;19969;-74
2022/10/09 01:04:35;;;;;;;;;;;7.90;99.90;;;;;;5140071;27;19923;-76
2022/10/09 01:07:01;;;;;;;;;;;7.90;99.90;;;;;;5138310;27;19930;-74
2022/10/09 01:09:29;;;;;;;;;;;7.90;99.90;;;;;;5144880;27;20434;-74
2022/10/09 01:11:59;;;;;;;;;;;7.90;99.90;;;;;;5159813;27;19923;-74
2022/10/09 01:14:27;;;;;;;;;;;7.90;99.90;;;;;;5142180;27;19946;-74
2022/10/09 01:16:52;;;;;;;;;;;7.80;99.90;;;;;;5140662;27;19927;-74
2022/10/09 01:19:30;;;;;;;;;;;7.80;99.90;;;;;;5141017;27;19930;-74
2022/10/09 01:21:56;;;;;;;;;;;8.00;99.90;;;;;;5139467;27;19930;-74
2022/10/09 01:24:21;;;;;;;;;;;8.10;99.90;;;;;;5135810;27;19923;-74
2022/10/09 01:27:06;;;;;;;;;;;8.10;99.90;;;;;;5158219;27;19923;-74
2022/10/09 01:29:33;;;;;;;;;;;8.10;99.90;;;;;;5158065;27;19970;-74
2022/10/09 01:32:00;;;;;;;;;;;8.20;99.90;;;;;;5135314;27;19929;-74
2022/10/09 01:34:26;;;;;;;;;;;8.20;99.90;;;;;;5149942;27;19922;-74
2022/10/09 01:36:53;;;;;;;;;;;8.20;99.90;;;;;;5153908;27;19927;-74
2022/10/09 01:39:20;;;;;;;;;;;8.20;99.90;;;;;;5144100;27;19923;-74
2022/10/09 01:41:47;;;;;;;;;;;8.20;99.90;;;;;;5144776;27;19958;-74
2022/10/09 01:44:22;;;;;;;;;;;8.20;99.90;;;;;;5117995;27;19924;-74
2022/10/09 01:46:48;;;;;;;;;;;8.20;99.90;;;;;;5138903;27;19923;-74
2022/10/09 01:49:20;;;;;;;;;;;8.10;99.90;;;;;;5140774;27;20741;-74
2022/10/09 01:52:04;;;;;;;;;;;8.10;99.90;;;;;;5118957;27;19923;-74
2022/10/09 01:54:36;;;;;;;;;;;8.10;99.90;;;;;;5157261;27;19923;-74
2022/10/09 01:57:03;;;;;;;;;;;8.00;99.90;;;;;;5131793;27;19927;-74
2022/10/09 01:59:29;;;;;;;;;;;8.00;99.90;;;;;;5142690;27;19927;-74
2022/10/09 02:01:55;;;;;;;;;;;8.10;99.90;;;;;;5139419;27;19923;-77
2022/10/09 02:04:22;;;;;;;;;;;8.00;99.90;;;;;;5137595;27;20318;-74
2022/10/09 02:06:48;;;;;;;;;;;8.00;99.90;;;;;;5138846;27;19931;-74
2022/10/09 02:09:15;;;;;;;;;;;8.00;99.90;;;;;;5138848;27;20419;-74
2022/10/09 02:11:42;;;;;;;;;;;7.90;99.90;;;;;;5137808;27;19931;-74
2022/10/09 02:14:08;;;;;;;;;;;7.90;99.90;;;;;;5138567;27;19923;-74
2022/10/09 02:16:33;;;;;;;;;;;7.90;99.90;;;;;;5155752;27;19923;-76
2022/10/09 02:19:19;;;;;;;;;;;7.80;99.90;;;;;;5135638;27;19923;-78
2022/10/09 02:21:45;;;;;;;;;;;7.80;99.90;;;;;;5128586;27;19969;-74
2022/10/09 02:24:12;;;;;;;;;;;7.80;99.90;;;;;;5137653;27;19923;-74
2022/10/09 02:26:38;;;;;;;;;;;7.80;99.90;;;;;;5153282;27;20007;-75
2022/10/09 02:29:04;;;;;;;;;;;7.80;99.90;;;;;;5139556;27;19966;-74
2022/10/09 02:31:30;;;;;;;;;;;7.80;99.90;;;;;;5138297;27;19962;-75
2022/10/09 02:33:57;;;;;;;;;;;7.90;99.90;;;;;;5137826;27;19923;-74
2022/10/09 02:36:23;;;;;;;;;;;7.90;99.90;;;;;;5137327;27;19923;-74
2022/10/09 02:38:48;;;;;;;;;;;7.90;99.90;;;;;;5137782;27;19923;-74
2022/10/09 02:41:14;;;;;;;;;;;7.90;99.90;;;;;;5122743;27;19931;-74
2022/10/09 02:43:40;;;;;;;;;;;7.90;99.90;;;;;;5123245;27;19945;-74
2022/10/09 02:46:05;;;;;;;;;;;7.90;99.90;;;;;;5137583;27;20019;-74
2022/10/09 02:48:31;;;;;;;;;;;8.00;99.90;;;;;;5117409;27;19930;-75
2022/10/09 02:50:56;;;;;;;;;;;7.90;99.90;;;;;;5117178;27;20010;-74
2022/10/09 02:53:22;;;;;;;;;;;7.90;99.90;;;;;;5100347;27;20457;-74
2022/10/09 02:55:47;;;;;;;;;;;7.90;99.90;;;;;;5120123;27;19931;-74
2022/10/09 02:58:13;;;;;;;;;;;7.90;99.90;;;;;;5121968;27;20355;-74
2022/10/09 03:00:38;;;;;;;;;;;7.90;99.90;;;;;;5100621;27;19931;-74
2022/10/09 03:03:04;;;;;;;;;;;8.00;99.90;;;;;;5130966;27;19930;-75
2022/10/09 03:05:30;;;;;;;;;;;8.00;99.90;;;;;;5143318;27;19927;-75
2022/10/09 03:07:55;;;;;;;;;;;8.00;99.90;;;;;;5141303;27;19983;-74
2022/10/09 03:10:21;;;;;;;;;;;8.00;99.90;;;;;;5125872;27;19929;-74
2022/10/09 03:12:47;;;;;;;;;;;8.00;99.90;;;;;;5138620;27;20354;-74
2022/10/09 03:15:13;;;;;;;;;;;7.90;99.90;;;;;;5119659;27;19937;-74
2022/10/09 03:17:39;;;;;;;;;;;7.90;99.90;;;;;;5112202;27;20317;-78
2022/10/09 03:20:05;;;;;;;;;;;7.90;99.90;;;;;;5133012;27;19923;-74
2022/10/09 03:22:30;;;;;;;;;;;7.80;99.90;;;;;;5137957;27;19978;-74
2022/10/09 03:24:56;;;;;;;;;;;7.80;99.90;;;;;;5137263;27;20366;-74
2022/10/09 03:27:22;;;;;;;;;;;7.70;99.90;;;;;;5135685;27;19938;-74
2022/10/09 03:29:47;;;;;;;;;;;7.70;99.90;;;;;;5138307;27;20011;-73
2022/10/09 03:32:13;;;;;;;;;;;7.70;99.90;;;;;;5155938;27;19930;-74
2022/10/09 03:34:38;;;;;;;;;;;7.70;99.90;;;;;;5134371;27;20374;-74
2022/10/09 03:37:04;;;;;;;;;;;7.70;99.90;;;;;;5137022;27;19923;-73
2022/10/09 03:39:30;;;;;;;;;;;7.70;99.90;;;;;;5136350;27;19923;-74
2022/10/09 03:41:55;;;;;;;;;;;7.60;99.90;;;;;;5138182;27;19927;-73
2022/10/09 03:44:21;;;;;;;;;;;7.70;99.90;;;;;;5136258;27;20405;-74
2022/10/09 03:46:47;;;;;;;;;;;7.70;99.90;;;;;;5175441;27;20088;-74
2022/10/09 03:49:12;;;;;;;;;;;7.60;99.90;;;;;;5175637;27;19930;-74
2022/10/09 03:51:38;;;;;;;;;;;7.60;99.90;;;;;;5155853;27;19923;-74
2022/10/09 03:54:03;;;;;;;;;;;7.60;99.90;;;;;;5156440;27;20282;-74
2022/10/09 03:56:29;;;;;;;;;;;7.60;99.90;;;;;;5132675;27;20200;-74
2022/10/09 03:58:55;;;;;;;;;;;7.70;99.90;;;;;;5082679;27;20006;-73
2022/10/09 04:01:20;;;;;;;;;;;7.70;99.90;;;;;;5119779;27;20430;-74
2022/10/09 04:03:46;;;;;;;;;;;7.70;99.90;;;;;;5149104;27;19927;-74
2022/10/09 04:06:11;;;;;;;;;;;7.70;99.90;;;;;;5131935;27;19923;-75
2022/10/09 04:08:37;;;;;;;;;;;7.70;99.90;;;;;;5116088;27;19942;-74
2022/10/09 04:11:03;;;;;;;;;;;7.70;99.90;;;;;;5115498;28;19924;-74
2022/10/09 04:13:28;;;;;;;;;;;7.70;99.90;;;;;;5134584;27;19992;-73
2022/10/09 04:15:54;;;;;;;;;;;7.60;99.90;;;;;;5154111;27;20030;-74
2022/10/09 04:18:20;;;;;;;;;;;7.70;99.90;;;;;;5136039;27;19927;-74
2022/10/09 04:20:50;;;;;;;;;;;7.70;99.90;;;;;;5136613;27;20420;-74
2022/10/09 04:23:16;;;;;;;;;;;7.70;99.90;;;;;;5137771;27;19972;-74
2022/10/09 04:25:42;;;;;;;;;;;7.70;99.90;;;;;;5114873;28;19992;-74
2022/10/09 04:28:07;;;;;;;;;;;7.70;99.90;;;;;;5099150;28;20359;-73
2022/10/09 04:30:33;;;;;;;;;;;7.60;99.90;;;;;;5115813;28;19938;-74
2022/10/09 04:32:59;;;;;;;;;;;7.60;99.90;;;;;;5129839;27;19931;-73
2022/10/09 04:35:24;;;;;;;;;;;7.60;99.90;;;;;;5138488;27;20362;-74
2022/10/09 04:37:50;;;;;;;;;;;7.60;99.90;;;;;;5141704;27;19992;-74
2022/10/09 04:40:15;;;;;;;;;;;7.60;99.90;;;;;;5115389;28;19978;-77
2022/10/09 04:42:41;;;;;;;;;;;7.60;99.90;;;;;;5142089;27;20422;-74
2022/10/09 04:45:07;;;;;;;;;;;7.60;99.90;;;;;;5157299;27;19933;-73
2022/10/09 04:47:32;;;;;;;;;;;7.50;99.90;;;;;;5124702;27;19960;-74
2022/10/09 04:49:58;;;;;;;;;;;7.50;99.90;;;;;;5135646;27;19967;-74
2022/10/09 04:52:24;;;;;;;;;;;7.40;99.90;;;;;;5154465;27;20374;-74
2022/10/09 04:54:50;;;;;;;;;;;7.40;99.90;;;;;;5135516;27;19934;-73
2022/10/09 04:57:15;;;;;;;;;;;7.30;99.90;;;;;;5119009;27;20374;-74
2022/10/09 04:59:41;;;;;;;;;;;7.30;99.90;;;;;;5150470;27;20026;-75
2022/10/09 05:02:06;;;;;;;;;;;7.20;99.90;;;;;;5130364;27;20271;-74
2022/10/09 05:04:32;;;;;;;;;;;7.10;99.90;;;;;;5141673;27;19977;-74
2022/10/09 05:06:57;;;;;;;;;;;7.10;99.90;;;;;;5136195;27;19927;-74
2022/10/09 05:09:23;;;;;;;;;;;7.20;99.90;;;;;;5152670;27;20006;-74
2022/10/09 05:11:49;;;;;;;;;;;7.00;99.90;;;;;;5153465;27;20267;-74
2022/10/09 05:14:14;;;;;;;;;;;7.10;99.90;;;;;;5135765;27;19931;-74
2022/10/09 05:16:40;;;;;;;;;;;7.10;99.90;;;;;;5118585;27;19963;-74
2022/10/09 05:19:05;;;;;;;;;;;7.10;99.90;;;;;;5138902;27;20418;-74
2022/10/09 05:21:31;;;;;;;;;;;7.10;99.90;;;;;;5138899;27;19923;-74
2022/10/09 05:23:57;;;;;;;;;;;7.10;99.90;;;;;;5139843;27;19927;-78
2022/10/09 05:26:23;;;;;;;;;;;7.10;99.90;;;;;;5126457;27;20389;-74
2022/10/09 05:28:49;;;;;;;;;;;7.10;99.90;;;;;;5138316;27;19923;-73
2022/10/09 05:31:19;;;;;;;;;;;7.10;99.90;;;;;;5140117;27;19930;-74
2022/10/09 05:33:45;;;;;;;;;;;7.10;99.90;;;;;;5139196;27;19966;-72
2022/10/09 05:36:11;;;;;;;;;;;7.10;99.90;;;;;;5139384;27;19969;-73
2022/10/09 05:38:36;;;;;;;;;;;7.00;99.90;;;;;;5105192;27;20018;-72
2022/10/09 05:41:03;;;;;;;;;;;7.00;99.90;;;;;;5139241;27;19923;-71
2022/10/09 05:43:34;;;;;;;;;;;7.00;99.90;;;;;;5137579;27;19923;-75
2022/10/09 05:46:05;;;;;;;;;;;7.00;99.90;;;;;;5121973;27;19930;-74
2022/10/09 05:48:31;;;;;;;;;;;6.90;99.90;;;;;;5138743;27;20018;-73
2022/10/09 05:51:07;;;;;;;;;;;6.90;99.90;;;;;;5122098;27;20067;-72
2022/10/09 05:53:32;;;;;;;;;;;7.00;99.90;;;;;;5137055;27;20361;-74
2022/10/09 05:56:07;;;;;;;;;;;7.00;99.90;;;;;;5138977;27;20376;-73
2022/10/09 05:58:33;;;;;;;;;;;7.00;99.90;;;;;;5136509;27;20286;-73
2022/10/09 06:00:59;;;;;;;;;;;7.00;99.90;;;;;;5118440;27;19928;-73
2022/10/09 06:03:24;;;;;;;;;;;7.00;99.90;;;;;;5137416;27;20370;-80
2022/10/09 06:05:50;;;;;;;;;;;7.10;99.90;;;;;;5138359;27;20046;-72
2022/10/09 06:08:15;;;;;;;;;;;7.10;99.90;;;;;;5138078;27;19931;-73
2022/10/09 06:10:41;;;;;;;;;;;7.10;99.90;;;;;;5117246;27;20018;-73
2022/10/09 06:13:07;;;;;;;;;;;7.10;99.90;;;;;;5135639;27;19941;-75
2022/10/09 06:15:32;;;;;;;;;;;7.10;99.90;;;;;;5114561;28;19928;-73
2022/10/09 06:17:58;;;;;;;;;;;7.10;99.90;;;;;;5113959;27;20260;-73
2022/10/09 06:20:23;;;;;;;;;;;7.10;99.90;;;;;;5081144;28;19931;-74
2022/10/09 06:22:50;;;;;;;;;;;7.10;99.90;;;;;;5114730;28;19925;-74
2022/10/09 06:25:15;;;;;;;;;;;7.10;99.90;;;;;;5128850;27;19924;-74
2022/10/09 06:27:41;;;;;;;;;;;7.20;99.90;;;;;;5116888;27;19931;-73
2022/10/09 06:30:07;;;;;;;;;;;7.20;99.90;;;;;;5117620;27;19927;-75
2022/10/09 06:32:32;;;;;;;;;;;7.20;99.90;;;;;;5134348;27;20016;-74
2022/10/09 06:34:58;;;;;;;;;;;7.20;99.90;;;;;;5117949;27;20379;-73
2022/10/09 06:37:23;;;;;;;;;;;7.30;99.90;;;;;;5133197;27;19924;-73
2022/10/09 06:39:49;;;;;;;;;;;7.30;99.90;;;;;;5134309;27;19935;-73
2022/10/09 06:42:15;;;;;;;;;;;7.30;99.90;;;;;;5117901;27;19930;-74
2022/10/09 06:44:43;;;;;;;;;;;7.40;99.90;;;;;;5100494;27;19992;-73
2022/10/09 06:47:08;;;;;;;;;;;7.40;99.90;;;;;;5116495;27;20301;-74
2022/10/09 06:49:34;;;;;;;;;;;7.40;99.90;;;;;;5116910;27;19924;-74
2022/10/09 06:51:59;;;;;;;;;;;7.50;99.90;;;;;;5130867;27;20006;-74
2022/10/09 06:54:25;;;;;;;;;;;7.50;99.90;;;;;;5117009;27;19938;-75
2022/10/09 06:56:52;;;;;;;;;;;7.50;99.90;;;;;;5135096;27;20340;-74
2022/10/09 06:59:18;;;;;;;;;;;7.50;99.90;;;;;;5120853;27;19931;-73
2022/10/09 07:01:43;;;;;;;;;;;7.60;99.90;;;;;;5114446;28;19928;-75
2022/10/09 07:04:10;;;;;;;;;;;7.60;99.90;;;;;;5114129;28;20035;-73
2022/10/09 07:06:37;;;;;;;;;;;7.70;99.90;;;;;;5106618;27;19931;-76
2022/10/09 07:09:04;;;;;;;;;;;7.70;99.90;;;;;;5129599;27;20371;-74
2022/10/09 07:11:31;;;;;;;;;;;7.80;99.90;;;;;;5127660;27;20449;-74
2022/10/09 07:13:58;;;;;;;;;;;7.90;99.90;;;;;;5134209;27;19966;-75
2022/10/09 07:16:24;;;;;;;;;;;8.00;99.90;;;;;;5113773;27;19931;-73
2022/10/09 07:18:50;;;;;;;;;;;8.00;99.90;;;;;;5121657;27;19924;-73
2022/10/09 07:21:16;;;;;;;;;;;8.10;99.90;;;;;;5132839;27;19924;-73
2022/10/09 07:23:42;;;;;;;;;;;8.10;99.90;;;;;;5115743;27;19928;-75
2022/10/09 07:26:19;;;;;;;;;;;8.20;99.90;;;;;;5123621;27;19924;-74
2022/10/09 07:28:45;;;;;;;;;;;8.30;99.90;;;;;;5130979;27;19931;-75
2022/10/09 07:31:10;;;;;;;;;;;8.40;99.90;;;;;;5116680;27;19923;-77
2022/10/09 07:33:37;;;;;;;;;;;8.40;99.90;;;;;;5134663;27;19945;-77
2022/10/09 07:36:03;;;;;;;;;;;8.50;99.90;;;;;;5133673;27;19930;-74
2022/10/09 07:38:29;;;;;;;;;;;8.60;99.90;;;;;;5133322;27;19933;-74
2022/10/09 07:40:58;;;;;;;;;;;8.70;99.90;;;;;;5132410;27;19938;-74
2022/10/09 07:43:23;;;;;;;;;;;8.70;99.90;;;;;;5134066;27;20010;-74
2022/10/09 07:45:49;;;;;;;;;;;8.80;99.90;;;;;;5133961;27;20466;-74
2022/10/09 07:48:15;;;;;;;;;;;8.90;99.90;;;;;;5133700;27;19923;-74
2022/10/09 07:50:40;;;;;;;;;;;9.00;99.90;;;;;;5111891;28;19924;-74
2022/10/09 07:53:07;;;;;;;;;;;9.10;99.90;;;;;;5141582;27;19927;-74
2022/10/09 07:55:33;;;;;;;;;;;9.20;99.90;;;;;;5137034;27;19927;-74
2022/10/09 07:57:58;;;;;;;;;;;9.30;99.90;;;;;;5154007;27;19934;-74
2022/10/09 08:00:24;;;;;;;;;;;9.30;99.90;;;;;;5144128;27;19940;-74
2022/10/09 08:02:50;;;;;;;;;;;9.40;99.90;;;;;;5143408;27;19930;-74
2022/10/09 08:05:15;;;;;;;;;;;9.50;99.90;;;;;;5116096;27;19973;-75
2022/10/09 08:07:41;;;;;;;;;;;9.60;99.90;;;;;;5123301;27;19967;-74
2022/10/09 08:10:06;;;;;;;;;;;9.60;99.90;;;;;;5117597;27;20356;-75
2022/10/09 08:12:32;;;;;;;;;;;9.70;99.90;;;;;;5112208;28;19967;-71
2022/10/09 08:14:58;;;;;;;;;;;9.80;99.90;;;;;;5112904;28;19924;-74
2022/10/09 08:17:23;;;;;;;;;;;9.90;99.90;;;;;;5097614;28;20400;-75
2022/10/09 08:19:49;;;;;;;;;;;10.00;99.90;;;;;;5127841;27;19976;-75
2022/10/09 08:22:14;;;;;;;;;;;10.10;99.90;;;;;;5118645;27;19928;-74
2022/10/09 08:24:40;;;;;;;;;;;10.20;99.90;;;;;;5109540;28;19931;-75
2022/10/09 08:27:05;;;;;;;;;;;10.30;99.90;;;;;;5111919;28;19958;-75
2022/10/09 08:29:31;;;;;;;;;;;10.40;99.90;;;;;;5130426;27;19928;-76
2022/10/09 08:31:57;;;;;;;;;;;10.50;99.90;;;;;;5112271;28;20329;-77
2022/10/09 08:34:22;;;;;;;;;;;10.60;99.90;;;;;;5127947;27;19931;-75
2022/10/09 08:36:48;;;;;;;;;;;10.70;99.90;;;;;;5131587;27;19930;-78
2022/10/09 08:39:14;;;;;;;;;;;10.80;99.90;;;;;;5149381;27;20400;-77
2022/10/09 08:41:42;;;;;;;;;;;10.90;99.90;;;;;;5113184;28;19934;-77
2022/10/09 08:44:10;;;;;;;;;;;11.10;99.90;;;;;;5125087;27;19933;-77
2022/10/09 08:46:51;;;;;;;;;;;11.10;99.90;;;;;;5135911;27;19963;-76
2022/10/09 08:49:31;;;;;;;;;;;11.20;99.90;;;;;;5110667;28;19980;-77
2022/10/09 08:51:59;;;;;;;;;;;11.40;99.90;;;;;;5108784;28;19936;-76
2022/10/09 08:54:35;;;;;;;;;;;11.50;99.90;;;;;;5113091;28;19928;-77
2022/10/09 08:57:09;;;;;;;;;;;11.50;99.90;;;;;;5115491;27;20424;-75
2022/10/09 08:59:35;;;;;;;;;;;11.60;99.90;;;;;;5125234;27;19941;-76
2022/10/09 09:02:05;;;;;;;;;;;11.70;99.90;;;;;;5132057;27;20374;-76
2022/10/09 09:04:31;;;;;;;;;;;11.80;99.90;;;;;;5124729;27;19957;-75
2022/10/09 09:07:05;;;;;;;;;;;11.90;99.90;;;;;;5130176;27;20438;-76
2022/10/09 09:09:50;;;;;;;;;;;12.00;99.90;;;;;;5124928;27;19923;-77
2022/10/09 09:12:28;;;;;;;;;;;12.10;99.90;;;;;;5133259;27;19927;-76
2022/10/09 09:14:59;;;;;;;;;;;12.20;99.90;;;;;;5113424;27;19928;-77
2022/10/09 09:17:31;;;;;;;;;;;12.40;99.90;;;;;;5107645;27;20278;-75
2022/10/09 09:20:13;;;;;;;;;;;12.40;99.90;;;;;;5113046;28;20295;-76
2022/10/09 09:22:41;;;;;;;;;;;12.40;99.90;;;;;;5112815;28;19935;-75
2022/10/09 09:25:27;;;;;;;;;;;12.50;99.90;;;;;;5119827;27;20290;-78
2022/10/09 09:27:53;;;;;;;;;;;12.60;99.90;;;;;;5131957;27;20044;-77
2022/10/09 09:30:24;;;;;;;;;;;12.60;99.90;;;;;;5128600;27;19975;-77
2022/10/09 09:32:49;;;;;;;;;;;12.70;99.90;;;;;;5116532;27;19923;-78
2022/10/09 09:35:20;;;;;;;;;;;12.80;99.90;;;;;;5132735;27;19928;-76
2022/10/09 09:37:45;;;;;;;;;;;12.80;99.90;;;;;;5130124;27;19927;-75
2022/10/09 09:40:15;;;;;;;;;;;12.90;99.90;;;;;;5131522;27;20030;-74
2022/10/09 09:42:41;;;;;;;;;;;13.00;99.90;;;;;;5132614;27;19928;-78
2022/10/09 09:45:11;;;;;;;;;;;13.10;99.90;;;;;;5136863;27;19938;-78
2022/10/09 09:47:44;;;;;;;;;;;13.30;99.90;;;;;;5134015;27;19931;-77
2022/10/09 09:50:10;;;;;;;;;;;13.20;99.90;;;;;;5132800;27;19927;-75
2022/10/09 09:52:38;;;;;;;;;;;13.20;99.90;;;;;;5132124;27;19935;-72
2022/10/09 09:55:04;;;;;;;;;;;13.30;99.90;;;;;;5133371;27;20302;-76
2022/10/09 09:57:36;;;;;;;;;;;13.40;99.90;;;;;;5115300;27;19927;-74
2022/10/09 10:00:06;;;;;;;;;;;13.40;99.90;;;;;;5133180;27;19998;-75
2022/10/09 10:02:32;;;;;;;;;;;13.40;99.90;;;;;;5133530;27;19934;-76
2022/10/09 10:05:05;;;;;;;;;;;13.50;99.90;;;;;;5131528;27;19928;-75
2022/10/09 10:07:32;;;;;;;;;;;13.50;99.90;;;;;;5118983;27;19928;-74
2022/10/09 10:10:01;;;;;;;;;;;13.60;99.90;;;;;;5113233;27;19931;-76
2022/10/09 10:12:27;;;;;;;;;;;13.50;99.90;;;;;;5128325;27;19931;-75
2022/10/09 10:14:53;;;;;;;;;;;13.60;99.90;;;;;;5132834;27;19994;-77
2022/10/09 10:17:24;;;;;;;;;;;13.60;99.90;;;;;;5131630;27;20435;-76
2022/10/09 10:19:50;;;;;;;;;;;13.60;99.90;;;;;;5125367;27;19927;-77
2022/10/09 10:22:23;;;;;;;;;;;13.70;99.90;;;;;;5128943;27;20276;-77
2022/10/09 10:24:51;;;;;;;;;;;13.70;99.90;;;;;;5129585;27;20442;-76
2022/10/09 10:27:16;;;;;;;;;;;13.70;99.90;;;;;;5113273;27;20380;-76
2022/10/09 10:29:43;;;;;;;;;;;13.80;99.90;;;;;;5094246;28;19981;-76
2022/10/09 10:32:21;;;;;;;;;;;13.80;99.90;;;;;;5112599;27;20386;-76
2022/10/09 10:34:49;;;;;;;;;;;13.80;99.90;;;;;;5128512;27;20050;-80
2022/10/09 10:37:22;;;;;;;;;;;13.90;99.90;;;;;;5131365;27;19927;-76
2022/10/09 10:39:53;;;;;;;;;;;13.90;99.90;;;;;;5133250;27;19939;-76
2022/10/09 10:42:39;;;;;;;;;;;14.00;99.90;;;;;;5120949;27;19976;-75
2022/10/09 10:45:25;;;;;;;;;;;14.10;99.90;;;;;;5099935;28;19924;-76
2022/10/09 10:47:52;;;;;;;;;;;14.10;99.90;;;;;;5093541;27;19928;-76
2022/10/09 10:50:18;;;;;;;;;;;14.20;99.90;;;;;;5106521;27;20731;-76
2022/10/09 10:52:56;;;;;;;;;;;14.20;99.90;;;;;;5131445;27;19927;-78
2022/10/09 10:55:27;;;;;;;;;;;14.20;99.90;;;;;;5128457;27;19931;-76
2022/10/09 10:58:02;;;;;;;;;;;14.40;99.90;;;;;;5123691;27;20291;-75
2022/10/09 11:00:28;;;;;;;;;;;14.50;99.90;;;;;;5117358;27;19974;-77
2022/10/09 11:02:57;;;;;;;;;;;14.70;99.90;;;;;;5120323;27;20366;-77
2022/10/09 11:05:25;;;;;;;;;;;14.80;99.90;;;;;;5130301;27;19950;-76
2022/10/09 11:08:03;;;;;;;;;;;15.10;99.90;;;;;;5126546;27;20014;-76
2022/10/09 11:10:36;;;;;;;;;;;15.30;99.90;;;;;;5126600;27;19931;-75
2022/10/09 11:13:10;;;;;;;;;;;15.60;99.90;;;;;;5148663;27;20018;-76
2022/10/09 11:15:45;;;;;;;;;;;15.90;99.90;;;;;;5133478;27;20029;-78
2022/10/09 11:18:17;;;;;;;;;;;16.30;99.90;;;;;;5116439;27;19980;-77
2022/10/09 11:20:50;;;;;;;;;;;16.30;99.90;;;;;;5129588;27;19931;-77
2022/10/09 11:23:36;;;;;;;;;;;16.50;99.90;;;;;;5133336;27;20397;-76
2022/10/09 11:26:08;;;;;;;;;;;16.60;99.90;;;;;;5133624;27;19923;-80
2022/10/09 11:28:57;;;;;;;;;;;16.80;99.90;;;;;;5129822;27;19926;-77
2022/10/09 11:31:33;;;;;;;;;;;17.00;99.90;;;;;;5133271;27;19927;-76
2022/10/09 11:34:02;;;;;;;;;;;17.40;99.90;;;;;;5116501;27;19934;-79
2022/10/09 11:36:39;;;;;;;;;;;17.30;99.90;;;;;;5151807;27;19931;-76
2022/10/09 11:39:09;;;;;;;;;;;17.30;99.90;;;;;;5126753;27;19967;-74
2022/10/09 11:41:36;;;;;;;;;;;17.30;99.90;;;;;;5130037;27;19919;-76
2022/10/09 11:44:20;;;;;;;;;;;17.40;99.90;;;;;;5100387;27;19923;-76
2022/10/09 11:46:58;;;;;;;;;;;17.20;99.90;;;;;;5129350;27;20454;-76
2022/10/09 11:49:27;;;;;;;;;;;17.20;99.90;;;;;;5133310;27;20714;-75
2022/10/09 11:52:00;;;;;;;;;;;17.10;99.90;;;;;;5116553;27;19934;-75
2022/10/09 11:54:27;;;;;;;;;;;17.20;99.90;;;;;;5133520;27;20006;-75
2022/10/09 11:56:54;;;;;;;;;;;17.20;99.90;;;;;;5133041;27;19930;-75
2022/10/09 11:59:22;;;;;;;;;;;17.40;99.90;;;;;;5133070;27;19930;-77
2022/10/09 12:01:47;;;;;;;;;;;17.60;99.90;;;;;;5149071;27;19931;-75
2022/10/09 12:04:14;;;;;;;;;;;17.60;99.90;;;;;;5144197;27;19927;-78
2022/10/09 12:06:49;;;;;;;;;;;17.70;99.90;;;;;;5128613;27;19923;-77
2022/10/09 12:09:19;;;;;;;;;;;17.80;99.90;;;;;;5132801;27;19923;-75
2022/10/09 12:12:00;;;;;;;;;;;18.10;99.90;;;;;;5132348;27;19992;-77
2022/10/09 12:14:27;;;;;;;;;;;18.20;99.90;;;;;;5131233;27;20390;-78
2022/10/09 12:16:53;;;;;;;;;;;18.30;99.90;;;;;;5133454;27;19931;-76
2022/10/09 12:19:28;;;;;;;;;;;18.50;99.90;;;;;;5115625;27;19930;-76
2022/10/09 12:21:58;;;;;;;;;;;18.40;99.90;;;;;;5132943;27;19938;-77
2022/10/09 12:24:32;;;;;;;;;;;18.30;99.90;;;;;;5133273;27;19973;-78
2022/10/09 12:26:59;;;;;;;;;;;18.40;99.90;;;;;;5133872;27;19999;-78
2022/10/09 12:29:30;;;;;;;;;;;18.60;99.90;;;;;;5155645;27;19927;-76
2022/10/09 12:31:58;;;;;;;;;;;18.70;99.90;;;;;;5135727;27;19923;-74
2022/10/09 12:34:29;;;;;;;;;;;18.90;99.90;;;;;;5139455;27;19948;-75
2022/10/09 12:37:02;;;;;;;;;;;18.70;99.90;;;;;;5154814;27;19949;-74
2022/10/09 12:39:28;;;;;;;;;;;18.70;99.90;;;;;;5104192;27;19934;-75
2022/10/09 12:41:55;;;;;;;;;;;18.90;99.90;;;;;;5155980;27;19929;-75
2022/10/09 12:44:24;;;;;;;;;;;18.90;99.90;;;;;;5144121;27;20623;-75
2022/10/09 12:46:50;;;;;;;;;;;19.30;99.90;;;;;;5151466;27;19923;-75
2022/10/09 12:49:18;;;;;;;;;;;19.50;99.90;;;;;;5120053;27;20302;-74
2022/10/09 12:51:49;;;;;;;;;;;19.90;99.90;;;;;;5137222;27;19927;-76
2022/10/09 12:54:14;;;;;;;;;;;20.10;99.90;;;;;;5137818;27;19975;-74
2022/10/09 12:56:40;;;;;;;;;;;20.60;99.90;;;;;;5135632;27;19982;-75
2022/10/09 12:59:08;;;;;;;;;;;21.00;99.90;;;;;;5134559;27;19949;-75
2022/10/09 13:01:34;;;;;;;;;;;21.20;99.90;;;;;;5116839;27;19927;-75
2022/10/09 13:04:04;;;;;;;;;;;21.00;99.90;;;;;;5099702;27;19927;-76
2022/10/09 13:06:34;;;;;;;;;;;21.40;99.20;;;;;;5123919;27;19923;-78
2022/10/09 13:09:01;;;;;;;;;;;21.20;98.90;;;;;;5156017;27;20017;-78
2022/10/09 13:11:39;;;;;;;;;;;21.30;98.90;;;;;;5136118;27;19938;-75
2022/10/09 13:14:06;;;;;;;;;;;21.10;98.00;;;;;;5137371;27;19927;-75
2022/10/09 13:16:38;;;;;;;;;;;21.30;98.00;;;;;;5119981;27;19934;-76
2022/10/09 13:19:19;;;;;;;;;;;20.90;98.70;;;;;;5144446;27;19926;-76
2022/10/09 13:21:44;;;;;;;;;;;21.00;98.90;;;;;;5157849;27;19922;-76
2022/10/09 13:24:12;;;;;;;;;;;21.20;98.80;;;;;;5140383;27;19934;-75
2022/10/09 13:26:39;;;;;;;;;;;21.20;99.90;;;;;;5139636;27;19931;-77
2022/10/09 13:29:06;;;;;;;;;;;20.90;97.50;;;;;;5127619;27;20462;-78
2022/10/09 13:31:32;;;;;;;;;;;20.80;98.30;;;;;;5136466;27;20026;-77
2022/10/09 13:34:09;;;;;;;;;;;20.80;98.30;;;;;;5105372;27;19975;-77
2022/10/09 13:36:34;;;;;;;;;;;21.30;98.70;;;;;;5154740;27;19927;-76
2022/10/09 13:39:00;;;;;;;;;;;22.00;97.80;;;;;;5140305;27;19923;-77
2022/10/09 13:41:25;;;;;;;;;;;22.30;97.10;;;;;;5152659;27;19927;-80
2022/10/09 13:43:51;;;;;;;;;;;22.60;96.90;;;;;;5136444;27;20086;-78
2022/10/09 13:46:17;;;;;;;;;;;22.90;96.60;;;;;;5154652;27;19932;-82
2022/10/09 13:48:43;;;;;;;;;;;22.90;95.30;;;;;;5120145;27;19928;-78
2022/10/09 13:51:08;;;;;;;;;;;23.10;94.20;;;;;;5136591;27;20263;-78
2022/10/09 13:53:34;;;;;;;;;;;22.80;94.30;;;;;;5119645;27;20374;-78
2022/10/09 13:56:00;;;;;;;;;;;22.50;92.80;;;;;;5118919;27;20006;-79
2022/10/09 13:58:25;;;;;;;;;;;22.40;93.90;;;;;;5136809;27;19932;-79
2022/10/09 14:00:51;;;;;;;;;;;22.30;94.70;;;;;;5115548;27;19931;-79
2022/10/09 14:03:16;;;;;;;;;;;22.20;92.70;;;;;;5151866;27;20501;-77
2022/10/09 14:05:43;;;;;;;;;;;22.20;94.00;;;;;;5142243;27;19938;-78
2022/10/09 14:08:08;;;;;;;;;;;21.80;93.50;;;;;;5136000;27;19930;-78
2022/10/09 14:10:34;;;;;;;;;;;22.10;94.40;;;;;;5153062;27;19934;-79
2022/10/09 14:13:00;;;;;;;;;;;22.10;93.80;;;;;;5135754;27;19923;-78
2022/10/09 14:15:25;;;;;;;;;;;21.70;94.00;;;;;;5131369;27;19927;-81
2022/10/09 14:17:51;;;;;;;;;;;21.40;94.80;;;;;;5135656;27;19927;-74
2022/10/09 14:20:17;;;;;;;;;;;21.10;95.60;;;;;;5137752;27;19965;-81
2022/10/09 14:22:42;;;;;;;;;;;20.90;95.00;;;;;;5129465;27;19976;-81
2022/10/09 14:25:08;;;;;;;;;;;21.50;96.20;;;;;;5146575;27;19934;-76
2022/10/09 14:27:34;;;;;;;;;;;21.90;94.70;;;;;;5139138;27;19930;-75